sensor_id;sensor_type;location;lat;lon;timestamp;P1;durP1;ratioP1;P2;durP2;ratioP2
31734;SDS011;18313;48.518;9.124;2022-12-29T00:00:18;4.30;;;2.38;;
31734;SDS011;18313;48.518;9.124;2022-12-29T00:02:45;4.32;;;2.50;;
31734;SDS011;18313;48.518;9.124;2022-12-29T00:05:13;6.28;;;2.08;;
31734;SDS011;18313;48.518;9.124;2022-12-29T00:07:40;5.70;;;1.70;;
31734;SDS011;18313;48.518;9.124;2022-12-29T00:10:07;5.70;;;2.08;;
31734;SDS011;18313;48.518;9.124;2022-12-29T00:12:34;8.57;;;2.22;;
31734;SDS011;18313;48.518;9.124;2022-12-29T00:15:20;2.85;;;1.55;;
31734;SDS011;18313;48.518;9.124;2022-12-29T00:18:06;2.90;;;1.50;;
31734;SDS011;18313;48.518;9.124;2022-12-29T00:20:35;4.90;;;1.60;;
31734;SDS011;18313;48.518;9.124;2022-12-29T00:23:22;5.32;;;1.80;;
31734;SDS011;18313;48.518;9.124;2022-12-29T00:26:12;6.85;;;2.60;;
31734;SDS011;18313;48.518;9.124;2022-12-29T00:28:59;4.97;;;2.13;;
31734;SDS011;18313;48.518;9.124;2022-12-29T00:31:45;4.40;;;2.40;;
31734;SDS011;18313;48.518;9.124;2022-12-29T00:34:31;5.20;;;2.70;;
31734;SDS011;18313;48.518;9.124;2022-12-29T00:37:17;4.80;;;2.38;;
31734;SDS011;18313;48.518;9.124;2022-12-29T00:40:05;5.20;;;2.58;;
31734;SDS011;18313;48.518;9.124;2022-12-29T00:42:50;4.65;;;2.33;;
31734;SDS011;18313;48.518;9.124;2022-12-29T00:45:36;5.05;;;1.95;;
31734;SDS011;18313;48.518;9.124;2022-12-29T00:48:05;5.88;;;2.00;;
31734;SDS011;18313;48.518;9.124;2022-12-29T00:50:32;5.57;;;1.92;;
31734;SDS011;18313;48.518;9.124;2022-12-29T00:53:00;4.63;;;1.80;;
31734;SDS011;18313;48.518;9.124;2022-12-29T00:55:26;2.47;;;1.45;;
31734;SDS011;18313;48.518;9.124;2022-12-29T00:57:54;4.47;;;1.42;;
31734;SDS011;18313;48.518;9.124;2022-12-29T01:00:21;4.07;;;1.50;;
31734;SDS011;18313;48.518;9.124;2022-12-29T01:02:48;2.83;;;1.63;;
31734;SDS011;18313;48.518;9.124;2022-12-29T01:05:15;4.97;;;1.40;;
31734;SDS011;18313;48.518;9.124;2022-12-29T01:07:43;3.33;;;1.50;;
31734;SDS011;18313;48.518;9.124;2022-12-29T01:10:10;4.30;;;1.90;;
31734;SDS011;18313;48.518;9.124;2022-12-29T01:12:38;4.07;;;1.52;;
31734;SDS011;18313;48.518;9.124;2022-12-29T01:15:08;3.97;;;1.50;;
31734;SDS011;18313;48.518;9.124;2022-12-29T01:17:37;3.65;;;1.50;;
31734;SDS011;18313;48.518;9.124;2022-12-29T01:20:04;4.43;;;1.42;;
31734;SDS011;18313;48.518;9.124;2022-12-29T01:22:32;3.85;;;1.50;;
31734;SDS011;18313;48.518;9.124;2022-12-29T01:24:59;3.03;;;1.30;;
31734;SDS011;18313;48.518;9.124;2022-12-29T01:27:27;5.10;;;1.17;;
31734;SDS011;18313;48.518;9.124;2022-12-29T01:29:54;3.17;;;1.20;;
31734;SDS011;18313;48.518;9.124;2022-12-29T01:32:21;4.47;;;1.45;;
31734;SDS011;18313;48.518;9.124;2022-12-29T01:34:48;3.22;;;1.27;;
31734;SDS011;18313;48.518;9.124;2022-12-29T01:37:15;2.45;;;1.20;;
31734;SDS011;18313;48.518;9.124;2022-12-29T01:39:43;2.75;;;1.50;;
31734;SDS011;18313;48.518;9.124;2022-12-29T01:42:17;4.60;;;1.80;;
31734;SDS011;18313;48.518;9.124;2022-12-29T01:44:47;3.72;;;1.40;;
31734;SDS011;18313;48.518;9.124;2022-12-29T01:47:38;5.80;;;1.42;;
31734;SDS011;18313;48.518;9.124;2022-12-29T01:50:11;3.28;;;1.40;;
31734;SDS011;18313;48.518;9.124;2022-12-29T01:52:50;3.33;;;1.27;;
31734;SDS011;18313;48.518;9.124;2022-12-29T01:55:23;7.35;;;1.48;;
31734;SDS011;18313;48.518;9.124;2022-12-29T01:57:53;3.83;;;1.10;;
31734;SDS011;18313;48.518;9.124;2022-12-29T02:00:24;3.35;;;1.27;;
31734;SDS011;18313;48.518;9.124;2022-12-29T02:02:52;2.35;;;1.20;;
31734;SDS011;18313;48.518;9.124;2022-12-29T02:05:25;4.45;;;1.02;;
31734;SDS011;18313;48.518;9.124;2022-12-29T02:07:57;1.75;;;0.85;;
31734;SDS011;18313;48.518;9.124;2022-12-29T02:10:26;3.45;;;1.20;;
31734;SDS011;18313;48.518;9.124;2022-12-29T02:12:56;3.55;;;1.42;;
31734;SDS011;18313;48.518;9.124;2022-12-29T02:15:35;2.28;;;0.90;;
31734;SDS011;18313;48.518;9.124;2022-12-29T02:29:29;4.88;;;0.90;;
31734;SDS011;18313;48.518;9.124;2022-12-29T02:40:01;4.18;;;1.10;;
31734;SDS011;18313;48.518;9.124;2022-12-29T02:48:18;4.05;;;0.82;;
31734;SDS011;18313;48.518;9.124;2022-12-29T02:50:57;1.50;;;0.90;;
31734;SDS011;18313;48.518;9.124;2022-12-29T02:53:29;5.45;;;0.98;;
31734;SDS011;18313;48.518;9.124;2022-12-29T02:56:17;2.15;;;0.90;;
31734;SDS011;18313;48.518;9.124;2022-12-29T02:58:45;3.33;;;1.20;;
31734;SDS011;18313;48.518;9.124;2022-12-29T03:07:00;4.27;;;1.10;;
31734;SDS011;18313;48.518;9.124;2022-12-29T03:10:15;1.58;;;0.93;;
31734;SDS011;18313;48.518;9.124;2022-12-29T03:13:01;3.92;;;0.95;;
31734;SDS011;18313;48.518;9.124;2022-12-29T03:21:37;3.63;;;1.07;;
31734;SDS011;18313;48.518;9.124;2022-12-29T03:24:29;2.65;;;1.00;;
31734;SDS011;18313;48.518;9.124;2022-12-29T03:27:02;3.45;;;1.02;;
31734;SDS011;18313;48.518;9.124;2022-12-29T03:29:34;2.47;;;1.00;;
31734;SDS011;18313;48.518;9.124;2022-12-29T03:32:07;1.88;;;0.88;;
31734;SDS011;18313;48.518;9.124;2022-12-29T03:34:36;2.38;;;1.05;;
31734;SDS011;18313;48.518;9.124;2022-12-29T03:37:06;4.13;;;1.20;;
31734;SDS011;18313;48.518;9.124;2022-12-29T03:39:40;3.83;;;1.00;;
31734;SDS011;18313;48.518;9.124;2022-12-29T03:42:09;3.08;;;0.80;;
31734;SDS011;18313;48.518;9.124;2022-12-29T03:44:44;2.95;;;1.02;;
31734;SDS011;18313;48.518;9.124;2022-12-29T03:47:12;1.85;;;1.20;;
31734;SDS011;18313;48.518;9.124;2022-12-29T03:49:41;3.35;;;1.05;;
31734;SDS011;18313;48.518;9.124;2022-12-29T03:52:08;3.28;;;0.88;;
31734;SDS011;18313;48.518;9.124;2022-12-29T03:54:35;4.30;;;1.00;;
31734;SDS011;18313;48.518;9.124;2022-12-29T03:57:02;4.93;;;1.08;;
31734;SDS011;18313;48.518;9.124;2022-12-29T03:59:30;2.17;;;1.05;;
31734;SDS011;18313;48.518;9.124;2022-12-29T04:01:57;2.30;;;0.90;;
31734;SDS011;18313;48.518;9.124;2022-12-29T04:04:24;5.13;;;1.27;;
31734;SDS011;18313;48.518;9.124;2022-12-29T04:06:51;4.22;;;1.00;;
31734;SDS011;18313;48.518;9.124;2022-12-29T04:09:18;4.90;;;1.20;;
31734;SDS011;18313;48.518;9.124;2022-12-29T04:11:45;3.80;;;1.10;;
31734;SDS011;18313;48.518;9.124;2022-12-29T04:14:13;3.45;;;1.10;;
31734;SDS011;18313;48.518;9.124;2022-12-29T04:16:40;2.03;;;1.00;;
31734;SDS011;18313;48.518;9.124;2022-12-29T04:19:07;2.90;;;1.05;;
31734;SDS011;18313;48.518;9.124;2022-12-29T04:21:48;3.05;;;1.27;;
31734;SDS011;18313;48.518;9.124;2022-12-29T04:24:15;4.32;;;1.35;;
31734;SDS011;18313;48.518;9.124;2022-12-29T04:26:44;3.45;;;0.90;;
31734;SDS011;18313;48.518;9.124;2022-12-29T04:29:11;3.83;;;1.08;;
31734;SDS011;18313;48.518;9.124;2022-12-29T04:31:38;2.10;;;1.10;;
31734;SDS011;18313;48.518;9.124;2022-12-29T04:34:05;7.45;;;1.15;;
31734;SDS011;18313;48.518;9.124;2022-12-29T04:36:33;4.13;;;1.10;;
31734;SDS011;18313;48.518;9.124;2022-12-29T04:39:00;3.03;;;1.10;;
31734;SDS011;18313;48.518;9.124;2022-12-29T04:41:27;3.50;;;1.10;;
31734;SDS011;18313;48.518;9.124;2022-12-29T04:43:54;3.40;;;1.20;;
31734;SDS011;18313;48.518;9.124;2022-12-29T04:46:21;2.78;;;0.98;;
31734;SDS011;18313;48.518;9.124;2022-12-29T04:48:49;3.85;;;1.10;;
31734;SDS011;18313;48.518;9.124;2022-12-29T04:51:17;4.70;;;1.25;;
31734;SDS011;18313;48.518;9.124;2022-12-29T04:53:44;2.70;;;1.10;;
31734;SDS011;18313;48.518;9.124;2022-12-29T04:56:12;5.28;;;1.45;;
31734;SDS011;18313;48.518;9.124;2022-12-29T04:58:39;3.70;;;1.35;;
31734;SDS011;18313;48.518;9.124;2022-12-29T05:01:06;2.83;;;0.93;;
31734;SDS011;18313;48.518;9.124;2022-12-29T05:03:33;2.25;;;1.10;;
31734;SDS011;18313;48.518;9.124;2022-12-29T05:06:00;4.70;;;1.27;;
31734;SDS011;18313;48.518;9.124;2022-12-29T05:08:28;3.53;;;1.23;;
31734;SDS011;18313;48.518;9.124;2022-12-29T05:10:55;3.05;;;1.15;;
31734;SDS011;18313;48.518;9.124;2022-12-29T05:13:22;3.38;;;1.30;;
31734;SDS011;18313;48.518;9.124;2022-12-29T05:15:50;3.13;;;0.98;;
31734;SDS011;18313;48.518;9.124;2022-12-29T05:18:18;5.95;;;1.20;;
31734;SDS011;18313;48.518;9.124;2022-12-29T05:20:46;3.95;;;1.20;;
31734;SDS011;18313;48.518;9.124;2022-12-29T05:23:14;2.78;;;1.30;;
31734;SDS011;18313;48.518;9.124;2022-12-29T05:25:43;3.20;;;1.30;;
31734;SDS011;18313;48.518;9.124;2022-12-29T05:28:12;4.00;;;1.80;;
31734;SDS011;18313;48.518;9.124;2022-12-29T05:30:40;3.38;;;1.30;;
31734;SDS011;18313;48.518;9.124;2022-12-29T05:33:07;4.03;;;1.20;;
31734;SDS011;18313;48.518;9.124;2022-12-29T05:35:37;4.82;;;1.20;;
31734;SDS011;18313;48.518;9.124;2022-12-29T05:38:04;3.10;;;1.33;;
31734;SDS011;18313;48.518;9.124;2022-12-29T05:40:32;3.65;;;1.30;;
31734;SDS011;18313;48.518;9.124;2022-12-29T05:43:00;2.70;;;1.52;;
31734;SDS011;18313;48.518;9.124;2022-12-29T05:45:27;4.53;;;1.50;;
31734;SDS011;18313;48.518;9.124;2022-12-29T05:47:54;6.47;;;1.30;;
31734;SDS011;18313;48.518;9.124;2022-12-29T05:50:21;3.03;;;1.20;;
31734;SDS011;18313;48.518;9.124;2022-12-29T05:52:48;3.55;;;1.50;;
31734;SDS011;18313;48.518;9.124;2022-12-29T05:55:15;5.55;;;1.20;;
31734;SDS011;18313;48.518;9.124;2022-12-29T05:57:44;2.42;;;1.10;;
31734;SDS011;18313;48.518;9.124;2022-12-29T06:00:11;4.47;;;1.05;;
31734;SDS011;18313;48.518;9.124;2022-12-29T06:02:38;2.95;;;1.13;;
31734;SDS011;18313;48.518;9.124;2022-12-29T06:05:06;5.28;;;2.03;;
31734;SDS011;18313;48.518;9.124;2022-12-29T06:07:33;4.00;;;1.42;;
31734;SDS011;18313;48.518;9.124;2022-12-29T06:10:00;3.70;;;1.30;;
31734;SDS011;18313;48.518;9.124;2022-12-29T06:12:27;2.92;;;1.25;;
31734;SDS011;18313;48.518;9.124;2022-12-29T06:14:54;3.78;;;1.20;;
31734;SDS011;18313;48.518;9.124;2022-12-29T06:17:21;4.28;;;1.20;;
31734;SDS011;18313;48.518;9.124;2022-12-29T06:19:49;3.17;;;1.00;;
31734;SDS011;18313;48.518;9.124;2022-12-29T06:22:16;3.50;;;1.30;;
31734;SDS011;18313;48.518;9.124;2022-12-29T06:24:43;4.00;;;1.20;;
31734;SDS011;18313;48.518;9.124;2022-12-29T06:27:10;2.47;;;1.10;;
31734;SDS011;18313;48.518;9.124;2022-12-29T06:29:37;2.95;;;1.40;;
31734;SDS011;18313;48.518;9.124;2022-12-29T06:32:07;2.47;;;1.17;;
31734;SDS011;18313;48.518;9.124;2022-12-29T06:34:34;2.67;;;1.05;;
31734;SDS011;18313;48.518;9.124;2022-12-29T06:37:01;2.63;;;1.23;;
31734;SDS011;18313;48.518;9.124;2022-12-29T06:39:30;3.03;;;1.20;;
31734;SDS011;18313;48.518;9.124;2022-12-29T06:42:00;2.58;;;1.20;;
31734;SDS011;18313;48.518;9.124;2022-12-29T06:44:27;5.18;;;1.48;;
31734;SDS011;18313;48.518;9.124;2022-12-29T06:46:54;3.50;;;1.13;;
31734;SDS011;18313;48.518;9.124;2022-12-29T06:49:22;2.85;;;1.20;;
31734;SDS011;18313;48.518;9.124;2022-12-29T06:51:49;2.78;;;1.20;;
31734;SDS011;18313;48.518;9.124;2022-12-29T06:54:16;3.75;;;1.67;;
31734;SDS011;18313;48.518;9.124;2022-12-29T06:56:43;2.45;;;1.20;;
31734;SDS011;18313;48.518;9.124;2022-12-29T06:59:10;2.63;;;1.15;;
31734;SDS011;18313;48.518;9.124;2022-12-29T07:01:37;4.88;;;1.20;;
31734;SDS011;18313;48.518;9.124;2022-12-29T07:04:05;2.85;;;1.00;;
31734;SDS011;18313;48.518;9.124;2022-12-29T07:06:32;3.95;;;1.20;;
31734;SDS011;18313;48.518;9.124;2022-12-29T07:08:59;2.72;;;1.15;;
31734;SDS011;18313;48.518;9.124;2022-12-29T07:11:26;3.67;;;1.10;;
31734;SDS011;18313;48.518;9.124;2022-12-29T07:13:53;3.33;;;1.25;;
31734;SDS011;18313;48.518;9.124;2022-12-29T07:16:20;4.65;;;1.30;;
31734;SDS011;18313;48.518;9.124;2022-12-29T07:18:48;3.28;;;1.25;;
31734;SDS011;18313;48.518;9.124;2022-12-29T07:21:15;2.15;;;1.10;;
31734;SDS011;18313;48.518;9.124;2022-12-29T07:23:42;2.38;;;1.20;;
31734;SDS011;18313;48.518;9.124;2022-12-29T07:26:11;4.90;;;1.20;;
31734;SDS011;18313;48.518;9.124;2022-12-29T07:28:39;4.22;;;1.60;;
31734;SDS011;18313;48.518;9.124;2022-12-29T07:31:12;3.05;;;1.10;;
31734;SDS011;18313;48.518;9.124;2022-12-29T07:33:43;3.88;;;1.20;;
31734;SDS011;18313;48.518;9.124;2022-12-29T07:36:10;2.08;;;1.20;;
31734;SDS011;18313;48.518;9.124;2022-12-29T07:38:39;8.35;;;1.33;;
31734;SDS011;18313;48.518;9.124;2022-12-29T07:41:07;4.20;;;1.33;;
31734;SDS011;18313;48.518;9.124;2022-12-29T07:43:34;6.88;;;1.13;;
31734;SDS011;18313;48.518;9.124;2022-12-29T07:46:01;6.45;;;1.38;;
31734;SDS011;18313;48.518;9.124;2022-12-29T07:48:28;1.80;;;0.90;;
31734;SDS011;18313;48.518;9.124;2022-12-29T07:50:55;3.22;;;1.33;;
31734;SDS011;18313;48.518;9.124;2022-12-29T07:53:23;2.30;;;1.17;;
31734;SDS011;18313;48.518;9.124;2022-12-29T07:55:50;3.30;;;1.10;;
31734;SDS011;18313;48.518;9.124;2022-12-29T07:58:17;4.97;;;1.33;;
31734;SDS011;18313;48.518;9.124;2022-12-29T08:00:45;3.33;;;0.93;;
31734;SDS011;18313;48.518;9.124;2022-12-29T08:03:12;3.88;;;1.13;;
31734;SDS011;18313;48.518;9.124;2022-12-29T08:05:39;6.32;;;1.20;;
31734;SDS011;18313;48.518;9.124;2022-12-29T08:08:06;4.35;;;1.23;;
31734;SDS011;18313;48.518;9.124;2022-12-29T08:10:34;3.83;;;1.30;;
31734;SDS011;18313;48.518;9.124;2022-12-29T08:13:00;2.47;;;1.25;;
31734;SDS011;18313;48.518;9.124;2022-12-29T08:15:28;4.30;;;1.15;;
31734;SDS011;18313;48.518;9.124;2022-12-29T08:17:58;3.65;;;1.10;;
31734;SDS011;18313;48.518;9.124;2022-12-29T08:20:25;3.08;;;1.13;;
31734;SDS011;18313;48.518;9.124;2022-12-29T08:22:53;5.07;;;1.20;;
31734;SDS011;18313;48.518;9.124;2022-12-29T08:25:20;3.58;;;1.10;;
31734;SDS011;18313;48.518;9.124;2022-12-29T08:27:49;1.98;;;1.10;;
31734;SDS011;18313;48.518;9.124;2022-12-29T08:30:16;5.13;;;1.40;;
31734;SDS011;18313;48.518;9.124;2022-12-29T08:32:44;2.67;;;1.10;;
31734;SDS011;18313;48.518;9.124;2022-12-29T08:35:11;4.68;;;1.20;;
31734;SDS011;18313;48.518;9.124;2022-12-29T08:37:39;4.28;;;1.63;;
31734;SDS011;18313;48.518;9.124;2022-12-29T08:40:06;2.83;;;0.98;;
31734;SDS011;18313;48.518;9.124;2022-12-29T08:42:34;4.13;;;1.42;;
31734;SDS011;18313;48.518;9.124;2022-12-29T08:45:01;4.10;;;1.30;;
31734;SDS011;18313;48.518;9.124;2022-12-29T08:47:28;2.70;;;1.20;;
31734;SDS011;18313;48.518;9.124;2022-12-29T08:49:55;2.45;;;1.20;;
31734;SDS011;18313;48.518;9.124;2022-12-29T08:52:23;3.80;;;1.35;;
31734;SDS011;18313;48.518;9.124;2022-12-29T08:54:50;4.32;;;2.28;;
31734;SDS011;18313;48.518;9.124;2022-12-29T08:57:17;7.35;;;3.35;;
31734;SDS011;18313;48.518;9.124;2022-12-29T08:59:44;5.30;;;2.90;;
31734;SDS011;18313;48.518;9.124;2022-12-29T09:02:12;4.57;;;1.35;;
31734;SDS011;18313;48.518;9.124;2022-12-29T09:04:47;3.50;;;1.33;;
31734;SDS011;18313;48.518;9.124;2022-12-29T09:07:15;3.20;;;1.10;;
31734;SDS011;18313;48.518;9.124;2022-12-29T09:09:42;6.20;;;1.48;;
31734;SDS011;18313;48.518;9.124;2022-12-29T09:12:09;4.60;;;1.20;;
31734;SDS011;18313;48.518;9.124;2022-12-29T09:14:36;5.00;;;1.27;;
31734;SDS011;18313;48.518;9.124;2022-12-29T09:17:03;3.13;;;1.20;;
31734;SDS011;18313;48.518;9.124;2022-12-29T09:19:49;2.25;;;1.10;;
31734;SDS011;18313;48.518;9.124;2022-12-29T09:22:17;3.55;;;1.13;;
31734;SDS011;18313;48.518;9.124;2022-12-29T09:24:44;3.20;;;1.10;;
31734;SDS011;18313;48.518;9.124;2022-12-29T09:27:11;2.72;;;1.20;;
31734;SDS011;18313;48.518;9.124;2022-12-29T09:29:38;2.67;;;0.82;;
31734;SDS011;18313;48.518;9.124;2022-12-29T09:32:06;3.72;;;1.10;;
31734;SDS011;18313;48.518;9.124;2022-12-29T09:34:38;3.55;;;1.23;;
31734;SDS011;18313;48.518;9.124;2022-12-29T09:37:05;4.93;;;1.45;;
31734;SDS011;18313;48.518;9.124;2022-12-29T09:39:32;3.50;;;1.23;;
31734;SDS011;18313;48.518;9.124;2022-12-29T09:45:10;2.92;;;1.25;;
31734;SDS011;18313;48.518;9.124;2022-12-29T09:47:45;3.78;;;1.30;;
31734;SDS011;18313;48.518;9.124;2022-12-29T09:50:26;3.20;;;1.10;;
31734;SDS011;18313;48.518;9.124;2022-12-29T09:53:18;4.75;;;1.50;;
31734;SDS011;18313;48.518;9.124;2022-12-29T10:01:23;4.97;;;1.98;;
31734;SDS011;18313;48.518;9.124;2022-12-29T10:04:08;4.45;;;1.70;;
31734;SDS011;18313;48.518;9.124;2022-12-29T10:06:41;2.15;;;1.20;;
31734;SDS011;18313;48.518;9.124;2022-12-29T10:15:29;5.03;;;1.20;;
31734;SDS011;18313;48.518;9.124;2022-12-29T10:21:39;3.67;;;1.13;;
31734;SDS011;18313;48.518;9.124;2022-12-29T10:24:10;2.30;;;1.00;;
31734;SDS011;18313;48.518;9.124;2022-12-29T10:26:40;3.30;;;1.10;;
31734;SDS011;18313;48.518;9.124;2022-12-29T10:34:21;3.50;;;0.93;;
31734;SDS011;18313;48.518;9.124;2022-12-29T10:39:53;2.03;;;1.20;;
31734;SDS011;18313;48.518;9.124;2022-12-29T10:42:28;1.60;;;1.15;;
31734;SDS011;18313;48.518;9.124;2022-12-29T10:45:03;3.92;;;1.17;;
31734;SDS011;18313;48.518;9.124;2022-12-29T10:47:40;3.22;;;1.52;;
31734;SDS011;18313;48.518;9.124;2022-12-29T10:50:19;2.80;;;1.20;;
31734;SDS011;18313;48.518;9.124;2022-12-29T10:52:46;4.75;;;1.33;;
31734;SDS011;18313;48.518;9.124;2022-12-29T10:55:17;4.88;;;1.20;;
31734;SDS011;18313;48.518;9.124;2022-12-29T10:57:48;4.68;;;1.10;;
31734;SDS011;18313;48.518;9.124;2022-12-29T11:00:17;3.22;;;1.15;;
31734;SDS011;18313;48.518;9.124;2022-12-29T11:03:02;2.40;;;1.02;;
31734;SDS011;18313;48.518;9.124;2022-12-29T11:08:51;3.60;;;1.65;;
31734;SDS011;18313;48.518;9.124;2022-12-29T11:11:23;2.33;;;1.10;;
31734;SDS011;18313;48.518;9.124;2022-12-29T11:13:56;1.50;;;1.00;;
31734;SDS011;18313;48.518;9.124;2022-12-29T11:16:28;3.50;;;1.20;;
31734;SDS011;18313;48.518;9.124;2022-12-29T11:18:58;3.22;;;1.08;;
31734;SDS011;18313;48.518;9.124;2022-12-29T11:25:10;3.40;;;1.35;;
31734;SDS011;18313;48.518;9.124;2022-12-29T11:27:39;3.42;;;1.25;;
31734;SDS011;18313;48.518;9.124;2022-12-29T11:30:29;2.85;;;1.42;;
31734;SDS011;18313;48.518;9.124;2022-12-29T11:32:59;5.00;;;1.52;;
31734;SDS011;18313;48.518;9.124;2022-12-29T11:35:32;3.70;;;1.13;;
31734;SDS011;18313;48.518;9.124;2022-12-29T11:38:06;4.97;;;1.40;;
31734;SDS011;18313;48.518;9.124;2022-12-29T11:40:47;4.20;;;1.33;;
31734;SDS011;18313;48.518;9.124;2022-12-29T11:43:19;2.05;;;1.00;;
31734;SDS011;18313;48.518;9.124;2022-12-29T11:48:33;3.10;;;1.52;;
31734;SDS011;18313;48.518;9.124;2022-12-29T11:51:06;3.53;;;1.17;;
31734;SDS011;18313;48.518;9.124;2022-12-29T11:53:43;5.00;;;1.48;;
31734;SDS011;18313;48.518;9.124;2022-12-29T11:56:14;4.22;;;1.00;;
31734;SDS011;18313;48.518;9.124;2022-12-29T11:58:43;2.45;;;1.20;;
31734;SDS011;18313;48.518;9.124;2022-12-29T12:01:13;2.85;;;1.20;;
31734;SDS011;18313;48.518;9.124;2022-12-29T12:06:37;4.82;;;1.13;;
31734;SDS011;18313;48.518;9.124;2022-12-29T12:09:25;2.33;;;1.17;;
31734;SDS011;18313;48.518;9.124;2022-12-29T12:12:35;5.82;;;1.42;;
31734;SDS011;18313;48.518;9.124;2022-12-29T12:15:09;2.85;;;1.20;;
31734;SDS011;18313;48.518;9.124;2022-12-29T12:17:49;1.85;;;1.25;;
31734;SDS011;18313;48.518;9.124;2022-12-29T12:23:28;2.42;;;1.30;;
31734;SDS011;18313;48.518;9.124;2022-12-29T12:26:20;2.85;;;1.23;;
31734;SDS011;18313;48.518;9.124;2022-12-29T12:28:55;4.32;;;1.20;;
31734;SDS011;18313;48.518;9.124;2022-12-29T12:31:39;3.28;;;1.30;;
31734;SDS011;18313;48.518;9.124;2022-12-29T12:34:13;5.13;;;1.33;;
31734;SDS011;18313;48.518;9.124;2022-12-29T12:36:57;4.88;;;1.70;;
31734;SDS011;18313;48.518;9.124;2022-12-29T12:50:59;6.22;;;1.63;;
31734;SDS011;18313;48.518;9.124;2022-12-29T12:59:17;3.58;;;1.50;;
31734;SDS011;18313;48.518;9.124;2022-12-29T13:02:17;2.50;;;1.42;;
31734;SDS011;18313;48.518;9.124;2022-12-29T13:13:27;2.63;;;1.30;;
31734;SDS011;18313;48.518;9.124;2022-12-29T13:16:31;4.28;;;1.52;;
31734;SDS011;18313;48.518;9.124;2022-12-29T13:27:30;3.78;;;1.65;;
31734;SDS011;18313;48.518;9.124;2022-12-29T13:30:22;3.10;;;1.50;;
31734;SDS011;18313;48.518;9.124;2022-12-29T13:39:45;4.88;;;1.80;;
31734;SDS011;18313;48.518;9.124;2022-12-29T13:42:00;5.43;;;1.80;;
31734;SDS011;18313;48.518;9.124;2022-12-29T13:44:41;3.97;;;1.98;;
31734;SDS011;18313;48.518;9.124;2022-12-29T13:47:35;2.95;;;1.30;;
31734;SDS011;18313;48.518;9.124;2022-12-29T13:50:14;4.75;;;1.33;;
31734;SDS011;18313;48.518;9.124;2022-12-29T14:03:56;4.15;;;1.52;;
31734;SDS011;18313;48.518;9.124;2022-12-29T14:06:26;3.45;;;1.33;;
31734;SDS011;18313;48.518;9.124;2022-12-29T14:08:58;2.13;;;1.17;;
31734;SDS011;18313;48.518;9.124;2022-12-29T14:11:38;4.80;;;1.40;;
31734;SDS011;18313;48.518;9.124;2022-12-29T14:14:10;4.53;;;1.40;;
31734;SDS011;18313;48.518;9.124;2022-12-29T14:16:47;3.75;;;1.60;;
31734;SDS011;18313;48.518;9.124;2022-12-29T14:19:22;5.70;;;1.40;;
31734;SDS011;18313;48.518;9.124;2022-12-29T14:21:58;2.80;;;1.23;;
31734;SDS011;18313;48.518;9.124;2022-12-29T14:24:27;3.45;;;1.30;;
31734;SDS011;18313;48.518;9.124;2022-12-29T14:34:53;3.45;;;1.90;;
31734;SDS011;18313;48.518;9.124;2022-12-29T14:42:47;3.65;;;1.50;;
31734;SDS011;18313;48.518;9.124;2022-12-29T14:47:44;4.10;;;1.17;;
31734;SDS011;18313;48.518;9.124;2022-12-29T14:50:15;3.55;;;1.13;;
31734;SDS011;18313;48.518;9.124;2022-12-29T14:55:37;2.33;;;1.08;;
31734;SDS011;18313;48.518;9.124;2022-12-29T14:58:17;3.22;;;1.20;;
31734;SDS011;18313;48.518;9.124;2022-12-29T15:00:45;4.47;;;2.53;;
31734;SDS011;18313;48.518;9.124;2022-12-29T15:03:14;3.15;;;1.58;;
31734;SDS011;18313;48.518;9.124;2022-12-29T15:05:56;3.20;;;1.30;;
31734;SDS011;18313;48.518;9.124;2022-12-29T15:08:39;2.70;;;1.35;;
31734;SDS011;18313;48.518;9.124;2022-12-29T15:11:13;4.30;;;1.63;;
31734;SDS011;18313;48.518;9.124;2022-12-29T15:13:44;5.53;;;1.40;;
31734;SDS011;18313;48.518;9.124;2022-12-29T15:16:31;3.28;;;1.30;;
31734;SDS011;18313;48.518;9.124;2022-12-29T15:19:00;2.00;;;1.48;;
31734;SDS011;18313;48.518;9.124;2022-12-29T15:24:02;10.57;;;2.97;;
31734;SDS011;18313;48.518;9.124;2022-12-29T15:26:37;4.32;;;1.75;;
31734;SDS011;18313;48.518;9.124;2022-12-29T15:31:59;4.40;;;1.40;;
31734;SDS011;18313;48.518;9.124;2022-12-29T15:34:36;3.47;;;1.38;;
31734;SDS011;18313;48.518;9.124;2022-12-29T15:37:07;4.95;;;1.20;;
31734;SDS011;18313;48.518;9.124;2022-12-29T15:39:34;3.50;;;1.30;;
31734;SDS011;18313;48.518;9.124;2022-12-29T15:42:03;3.42;;;1.50;;
31734;SDS011;18313;48.518;9.124;2022-12-29T15:44:43;2.10;;;1.20;;
31734;SDS011;18313;48.518;9.124;2022-12-29T15:47:20;3.10;;;1.40;;
31734;SDS011;18313;48.518;9.124;2022-12-29T15:49:53;3.20;;;1.60;;
31734;SDS011;18313;48.518;9.124;2022-12-29T15:52:25;3.95;;;1.80;;
31734;SDS011;18313;48.518;9.124;2022-12-29T15:54:55;2.30;;;1.30;;
31734;SDS011;18313;48.518;9.124;2022-12-29T15:57:26;3.53;;;1.30;;
31734;SDS011;18313;48.518;9.124;2022-12-29T16:00:03;3.72;;;1.65;;
31734;SDS011;18313;48.518;9.124;2022-12-29T16:02:47;2.78;;;1.50;;
31734;SDS011;18313;48.518;9.124;2022-12-29T16:05:16;2.40;;;1.40;;
31734;SDS011;18313;48.518;9.124;2022-12-29T16:07:56;3.70;;;1.60;;
31734;SDS011;18313;48.518;9.124;2022-12-29T16:10:38;4.10;;;1.70;;
31734;SDS011;18313;48.518;9.124;2022-12-29T16:13:20;4.97;;;2.30;;
31734;SDS011;18313;48.518;9.124;2022-12-29T16:16:16;3.92;;;1.50;;
31734;SDS011;18313;48.518;9.124;2022-12-29T16:18:49;2.90;;;1.33;;
31734;SDS011;18313;48.518;9.124;2022-12-29T16:21:24;5.32;;;2.30;;
31734;SDS011;18313;48.518;9.124;2022-12-29T16:24:04;4.03;;;1.20;;
31734;SDS011;18313;48.518;9.124;2022-12-29T16:26:35;3.75;;;1.98;;
31734;SDS011;18313;48.518;9.124;2022-12-29T16:29:04;4.07;;;1.67;;
31734;SDS011;18313;48.518;9.124;2022-12-29T16:31:38;4.30;;;1.60;;
31734;SDS011;18313;48.518;9.124;2022-12-29T16:34:25;4.72;;;1.73;;
31734;SDS011;18313;48.518;9.124;2022-12-29T16:37:31;6.53;;;1.77;;
31734;SDS011;18313;48.518;9.124;2022-12-29T16:42:46;5.47;;;2.10;;
31734;SDS011;18313;48.518;9.124;2022-12-29T16:47:48;2.58;;;1.23;;
31734;SDS011;18313;48.518;9.124;2022-12-29T16:50:33;1.85;;;1.15;;
31734;SDS011;18313;48.518;9.124;2022-12-29T16:53:02;3.92;;;1.33;;
31734;SDS011;18313;48.518;9.124;2022-12-29T16:55:30;2.65;;;1.60;;
31734;SDS011;18313;48.518;9.124;2022-12-29T16:57:58;3.10;;;1.20;;
31734;SDS011;18313;48.518;9.124;2022-12-29T17:00:27;3.50;;;1.10;;
31734;SDS011;18313;48.518;9.124;2022-12-29T17:02:58;3.00;;;1.30;;
31734;SDS011;18313;48.518;9.124;2022-12-29T17:05:27;3.55;;;1.13;;
31734;SDS011;18313;48.518;9.124;2022-12-29T17:07:54;2.45;;;1.23;;
31734;SDS011;18313;48.518;9.124;2022-12-29T17:10:28;6.22;;;2.22;;
31734;SDS011;18313;48.518;9.124;2022-12-29T17:13:16;4.72;;;2.10;;
31734;SDS011;18313;48.518;9.124;2022-12-29T17:15:43;6.00;;;2.63;;
31734;SDS011;18313;48.518;9.124;2022-12-29T17:18:10;3.80;;;2.33;;
31734;SDS011;18313;48.518;9.124;2022-12-29T17:20:39;3.70;;;1.75;;
31734;SDS011;18313;48.518;9.124;2022-12-29T17:23:14;2.65;;;1.75;;
31734;SDS011;18313;48.518;9.124;2022-12-29T17:25:51;3.88;;;2.10;;
31734;SDS011;18313;48.518;9.124;2022-12-29T17:30:49;3.17;;;1.77;;
31734;SDS011;18313;48.518;9.124;2022-12-29T17:33:18;4.68;;;1.60;;
31734;SDS011;18313;48.518;9.124;2022-12-29T17:35:46;4.25;;;2.28;;
31734;SDS011;18313;48.518;9.124;2022-12-29T17:40:47;4.65;;;2.40;;
31734;SDS011;18313;48.518;9.124;2022-12-29T17:43:16;4.30;;;2.20;;
31734;SDS011;18313;48.518;9.124;2022-12-29T17:45:44;5.00;;;2.50;;
31734;SDS011;18313;48.518;9.124;2022-12-29T17:48:17;2.95;;;1.80;;
31734;SDS011;18313;48.518;9.124;2022-12-29T17:50:45;4.57;;;1.80;;
31734;SDS011;18313;48.518;9.124;2022-12-29T17:53:23;3.45;;;1.92;;
31734;SDS011;18313;48.518;9.124;2022-12-29T17:55:53;4.15;;;2.05;;
31734;SDS011;18313;48.518;9.124;2022-12-29T17:58:21;4.82;;;2.13;;
31734;SDS011;18313;48.518;9.124;2022-12-29T18:00:50;3.05;;;1.77;;